LTBA Airport Information

Runway Information
Runway 05 Length 8530 ft width 197 ft
Elevation 93 ft Threshold 492 ft Heading 59
Runway 23 Length 8530 ft Width 197 ft
Elevation 90 ft Threshold 0 ft Heading 239
Runway 17L Length 9843 ft width 148 ft
Elevation 157 ft Threshold 0 ft Heading 178
Runway 35R Length 9843 ft Width 148 ft
Elevation 100 ft Threshold 0 ft Heading 358
Runway 17R Length 9843 ft width 148 ft
Elevation 163 ft Threshold 0 ft Heading 178
Runway 35L Length 9843 ft Width 148 ft
Elevation 102 ft Threshold 0 ft Heading 358
Airport Frequencies
Type APP Name YESILKOY A Frequency 120.5 MHZ
Type ATIS Name ATIS Frequency 128.2 MHZ
Type CLD Name YESILKOY D Frequency 121.7 MHZ
Type GND Name YESILKOY G Frequency 121.8 MHZ
Type RMP Name YESILKOY R Frequency 121.9 MHZ
Type TWR Name YESILKOY T Frequency 118.1 MHZ
Airport Navaids
Type VORTAC Name Istanbul Frequency 112500 KHZ
Airport Weather Information & NOTAM
ADDS - METARS form results

(1011 UTC 18 August 2018)
 
METAR text: LTBA 180950Z 02010KT 9999 BKN036 31/21 Q1011 NOSIG
Conditions at: LTBA (ISTANBUL/ATATURK, TR) observed 0950 UTC 18 August 2018
Temperature: 31.0°C (88°F)
Dewpoint: 21.0°C (70°F) [RH = 55%]
Pressure (altimeter): 29.85 inches Hg (1011.0 mb)
Winds: from the NNE (20 degrees) at 12 MPH (10 knots; 5.2 m/s)
Visibility: 6 or more miles (10+ km)
Ceiling: 3600 feet AGL
Clouds: broken clouds at 3600 feet AGL
Weather: no significant weather observed at this time

METAR text: LTBA 180920Z 36010KT 320V060 9999 BKN032 29/21 Q1011 NOSIG RMK RWY17L 01010KT 340V040 RWY05 17004KT 110V230 RWY23 21006KT 170V240
Conditions at: LTBA (ISTANBUL/ATATURK, TR) observed 0920 UTC 18 August 2018
Temperature: 29.0°C (84°F)
Dewpoint: 21.0°C (70°F) [RH = 62%]
Pressure (altimeter): 29.85 inches Hg (1011.0 mb)
Winds: from the N (360 degrees) at 12 MPH (10 knots; 5.2 m/s)
Visibility: 6 or more miles (10+ km)
Ceiling: 3200 feet AGL
Clouds: broken clouds at 3200 feet AGL
Weather: no significant weather observed at this time